createdAt,value
2022-12-08T00:01:34.395Z,99284.91
2022-12-08T00:04:03.268Z,99280.84
2022-12-08T00:06:49.005Z,99286.13
2022-12-08T00:09:36.369Z,99283.69
2022-12-08T00:12:11.944Z,99270.25
2022-12-08T00:14:42.893Z,99276.50
2022-12-08T00:17:13.132Z,99270.44
2022-12-08T00:19:41.536Z,99293.19
2022-12-08T00:22:10.679Z,99285.06
2022-12-08T00:24:40.090Z,99281.63
2022-12-08T00:27:10.875Z,99287.50
2022-12-08T00:29:39.145Z,99282.28
2022-12-08T00:32:07.364Z,99276.03
2022-12-08T00:34:35.322Z,99279.84
2022-12-08T00:37:02.842Z,99281.25
2022-12-08T00:39:30.472Z,99278.19
2022-12-08T00:42:13.072Z,99276.16
2022-12-08T00:44:45.765Z,99263.47
2022-12-08T00:47:14.369Z,99284.41
2022-12-08T00:49:42.590Z,99294.72
2022-12-08T00:52:10.214Z,99277.56
2022-12-08T00:54:37.821Z,99270.28
2022-12-08T00:57:05.489Z,99274.81
2022-12-08T00:59:33.385Z,99271.34
2022-12-08T01:02:00.985Z,99258.25
2022-12-08T01:04:29.397Z,99278.66
2022-12-08T01:06:57.331Z,99263.94
2022-12-08T01:09:24.906Z,99272.19
2022-12-08T01:11:52.449Z,99269.16
2022-12-08T01:14:21.008Z,99230.41
2022-12-08T01:16:49.478Z,99279.53
2022-12-08T01:19:18.247Z,99280.13
2022-12-08T01:21:46.249Z,99237.91
2022-12-08T01:24:21.033Z,99279.13
2022-12-08T01:26:50.077Z,99271.09
2022-12-08T01:29:18.269Z,99269.63
2022-12-08T01:31:45.836Z,99274.88
2022-12-08T01:34:13.733Z,99267.22
2022-12-08T01:36:42.469Z,99277.88
2022-12-08T01:39:16.103Z,99290.38
2022-12-08T01:41:44.679Z,99283.38
2022-12-08T01:44:12.238Z,99287.63
2022-12-08T01:46:44.515Z,99283.97
2022-12-08T01:49:23.074Z,99284.22
2022-12-08T01:51:54.218Z,99283.59
2022-12-08T01:54:25.360Z,99272.53
2022-12-08T01:57:28.804Z,99274.09
2022-12-08T02:00:08.474Z,99281.16
2022-12-08T02:02:58.613Z,99282.16
2022-12-08T02:05:32.576Z,99281.19
2022-12-08T02:08:04.712Z,99286.63
2022-12-08T02:10:35.967Z,99276.34
2022-12-08T02:13:05.168Z,99266.88
2022-12-08T02:16:04.241Z,99275.06
2022-12-08T02:18:40.613Z,99263.63
2022-12-08T02:21:11.642Z,99267.28
2022-12-08T02:23:52.049Z,99265.84
2022-12-08T02:26:46.195Z,99267.72
2022-12-08T02:29:38.052Z,99266.94
2022-12-08T02:32:23.314Z,99275.16
2022-12-08T02:35:26.966Z,99276.31
2022-12-08T02:38:09.031Z,99263.81
2022-12-08T02:41:00.457Z,99266.03
2022-12-08T02:43:51.425Z,99274.09
2022-12-08T02:46:25.212Z,99261.84
2022-12-08T02:48:52.856Z,99266.44
2022-12-08T02:51:20.477Z,99268.91
2022-12-08T02:53:49.120Z,99267.28
2022-12-08T02:56:49.180Z,99275.03
2022-12-08T02:59:30.675Z,99265.75
2022-12-08T03:02:09.032Z,99273.41
2022-12-08T03:05:01.597Z,99279.25
2022-12-08T03:08:08.178Z,99258.88
2022-12-08T03:10:47.373Z,99271.16
2022-12-08T03:13:20.984Z,99277.63
2022-12-08T03:15:51.349Z,99274.41
2022-12-08T03:18:26.887Z,99263.09
2022-12-08T03:20:54.745Z,99278.00
2022-12-08T03:23:23.133Z,99281.22
2022-12-08T03:26:18.007Z,99273.88
2022-12-08T03:28:46.518Z,99282.16
2022-12-08T03:31:16.425Z,99277.13
2022-12-08T03:33:48.551Z,99275.28
2022-12-08T03:36:16.458Z,99286.16
2022-12-08T03:38:46.366Z,99282.50
2022-12-08T03:41:19.550Z,99286.53
2022-12-08T03:43:52.849Z,99277.06
2022-12-08T03:48:52.278Z,99285.41
2022-12-08T03:51:20.443Z,99276.13
2022-12-08T03:53:48.030Z,99279.91
2022-12-08T03:56:28.535Z,99289.91
2022-12-08T03:58:56.818Z,99290.91
2022-12-08T04:01:24.690Z,99272.53
2022-12-08T04:03:52.607Z,99279.38
2022-12-08T04:06:20.690Z,99292.28
2022-12-08T04:08:48.886Z,99282.00
2022-12-08T04:11:16.502Z,99277.69
2022-12-08T04:13:44.301Z,99286.53
2022-12-08T04:16:23.446Z,99281.22
2022-12-08T04:18:51.474Z,99287.84
2022-12-08T04:21:18.981Z,99287.38
2022-12-08T04:23:47.053Z,99281.34
2022-12-08T04:26:15.785Z,99285.97
2022-12-08T04:28:43.364Z,99287.09
2022-12-08T04:31:10.966Z,99283.88
2022-12-08T04:33:38.578Z,99292.53
2022-12-08T04:36:07.120Z,99286.63
2022-12-08T04:38:35.266Z,99290.56
2022-12-08T04:41:02.950Z,99291.78
2022-12-08T04:43:30.494Z,99287.47
2022-12-08T04:45:58.067Z,99296.44
2022-12-08T04:48:25.830Z,99302.94
2022-12-08T04:50:53.423Z,99299.81
2022-12-08T04:53:21.654Z,99290.25
2022-12-08T04:55:49.977Z,99300.53
2022-12-08T04:58:19.837Z,99297.91
2022-12-08T05:00:47.945Z,99301.09
2022-12-08T05:03:16.249Z,99305.25
2022-12-08T05:05:44.618Z,99298.78
2022-12-08T05:08:12.161Z,99299.41
2022-12-08T05:10:40.670Z,99313.41
2022-12-08T05:13:08.305Z,99310.44
2022-12-08T05:15:35.798Z,99305.66
2022-12-08T05:18:05.785Z,99310.34
2022-12-08T05:20:34.112Z,99317.72
2022-12-08T05:23:01.795Z,99305.38
2022-12-08T05:25:29.582Z,99319.22
2022-12-08T05:28:17.624Z,99322.34
2022-12-08T05:30:44.669Z,99321.38
2022-12-08T05:33:12.185Z,99320.78
2022-12-08T05:35:40.030Z,99312.84
2022-12-08T05:38:07.723Z,99318.44
2022-12-08T05:40:35.395Z,99318.75
2022-12-08T05:43:02.905Z,99316.94
2022-12-08T05:45:30.485Z,99315.44
2022-12-08T05:47:58.217Z,99310.31
2022-12-08T05:50:25.747Z,99307.81
2022-12-08T05:52:55.804Z,99301.88
2022-12-08T05:55:23.342Z,99297.97
2022-12-08T05:57:50.912Z,99303.72
2022-12-08T06:00:18.872Z,99315.31
2022-12-08T06:02:46.535Z,99314.75
2022-12-08T06:05:14.207Z,99308.41
2022-12-08T06:07:41.922Z,99300.03
2022-12-08T06:10:09.991Z,99303.75
2022-12-08T06:12:37.523Z,99304.94
2022-12-08T06:15:05.289Z,99320.88
2022-12-08T06:17:32.824Z,99310.81
2022-12-08T06:20:00.325Z,99304.41
2022-12-08T06:22:28.856Z,99315.91
2022-12-08T06:24:56.490Z,99305.75
2022-12-08T06:27:24.402Z,99317.34
2022-12-08T06:29:52.007Z,99305.09
2022-12-08T06:32:24.350Z,99312.91
2022-12-08T06:34:54.881Z,99306.38
2022-12-08T06:37:22.365Z,99312.06
2022-12-08T06:39:49.995Z,99310.47
2022-12-08T06:42:35.778Z,99305.63
2022-12-08T06:45:03.413Z,99302.97
2022-12-08T06:47:31.417Z,99295.28
2022-12-08T06:49:59.111Z,99308.59
2022-12-08T06:52:26.734Z,99296.59
2022-12-08T06:54:54.284Z,99293.91
2022-12-08T06:57:21.887Z,99302.69
2022-12-08T06:59:49.389Z,99299.78
2022-12-08T07:02:17.555Z,99295.28
2022-12-08T07:04:45.138Z,99289.41
2022-12-08T07:07:12.706Z,99296.88
2022-12-08T07:09:40.253Z,99283.03
2022-12-08T07:12:08.121Z,99302.19
2022-12-08T07:14:35.823Z,99288.09
2022-12-08T07:17:03.491Z,99302.19
2022-12-08T07:19:31.146Z,99298.22
2022-12-08T07:21:58.680Z,99295.56
2022-12-08T07:24:26.242Z,99292.88
2022-12-08T07:26:53.908Z,99276.63
2022-12-08T07:29:26.060Z,99277.72
2022-12-08T07:31:54.012Z,99287.81
2022-12-08T07:34:21.600Z,99304.00
2022-12-08T07:36:49.257Z,99293.88
2022-12-08T07:39:16.911Z,99293.38
2022-12-08T07:41:44.486Z,99300.81
2022-12-08T07:44:12.187Z,99292.81
2022-12-08T07:46:39.741Z,99298.63
2022-12-08T07:49:07.290Z,99303.91
2022-12-08T07:51:34.849Z,99285.50
2022-12-08T07:54:02.502Z,99294.72
2022-12-08T07:56:30.076Z,99279.53
2022-12-08T07:58:57.665Z,99287.16
2022-12-08T08:01:27.825Z,99272.97
2022-12-08T08:03:57.500Z,99300.84
2022-12-08T08:06:25.450Z,99305.28
2022-12-08T08:08:52.967Z,99281.97
2022-12-08T08:11:21.865Z,99262.66
2022-12-08T08:13:50.468Z,99282.66
2022-12-08T08:16:18.807Z,99287.19
2022-12-08T08:18:51.092Z,99281.84
2022-12-08T08:24:08.070Z,99270.50
2022-12-08T08:26:36.206Z,99270.81
2022-12-08T08:29:03.865Z,99282.59
2022-12-08T08:31:31.430Z,99271.38
2022-12-08T08:34:00.963Z,99270.56
2022-12-08T08:36:28.439Z,99274.66
2022-12-08T08:38:55.983Z,99277.63
2022-12-08T08:41:23.492Z,99269.13
2022-12-08T08:43:51.061Z,99277.44
2022-12-08T08:46:18.745Z,99267.91
2022-12-08T08:48:46.432Z,99270.63
2022-12-08T08:51:14.889Z,99276.53
2022-12-08T08:53:43.571Z,99267.66
2022-12-08T08:56:13.044Z,99269.13
2022-12-08T08:58:41.000Z,99270.72
2022-12-08T09:01:08.939Z,99265.41
2022-12-08T09:03:36.481Z,99266.56
2022-12-08T09:06:04.106Z,99275.38
2022-12-08T09:08:31.778Z,99268.47
2022-12-08T09:10:59.332Z,99259.00
2022-12-08T09:13:27.054Z,99258.56
2022-12-08T09:15:54.768Z,99272.28
2022-12-08T09:18:22.435Z,99256.03
2022-12-08T09:20:50.057Z,99242.16
2022-12-08T09:23:17.682Z,99254.88
2022-12-08T09:25:46.041Z,99238.47
2022-12-08T09:28:14.461Z,99257.50
2022-12-08T09:30:42.428Z,99258.75
2022-12-08T09:33:10.149Z,99269.47
2022-12-08T09:35:38.004Z,99243.94
2022-12-08T09:38:06.252Z,99271.63
2022-12-08T09:40:40.523Z,99259.78
2022-12-08T09:43:29.263Z,99255.69
2022-12-08T09:45:58.326Z,99254.41
2022-12-08T09:48:35.433Z,99262.56
2022-12-08T09:51:03.856Z,99253.75
2022-12-08T09:53:51.278Z,99249.75
2022-12-08T09:56:19.165Z,99267.72
2022-12-08T09:58:57.950Z,99264.75
2022-12-08T10:01:30.057Z,99254.22
2022-12-08T10:03:58.652Z,99237.63
2022-12-08T10:06:34.255Z,99258.78
2022-12-08T10:09:12.593Z,99257.81
2022-12-08T10:11:59.327Z,99263.13
2022-12-08T10:14:55.994Z,99249.91
2022-12-08T10:17:31.149Z,99268.41
2022-12-08T10:20:07.141Z,99253.19
2022-12-08T10:22:39.815Z,99250.09
2022-12-08T10:25:26.173Z,99250.34
2022-12-08T10:27:59.109Z,99234.38
2022-12-08T10:30:26.878Z,99250.09
2022-12-08T10:32:55.393Z,99253.91
2022-12-08T10:35:25.578Z,99251.03
2022-12-08T10:37:58.400Z,99234.53
2022-12-08T10:40:40.572Z,99243.28
2022-12-08T10:43:25.265Z,99235.19
2022-12-08T10:45:53.104Z,99242.78
2022-12-08T10:48:28.442Z,99244.97
2022-12-08T10:50:58.413Z,99256.16
2022-12-08T10:53:29.054Z,99282.09
2022-12-08T10:56:03.003Z,99276.53
2022-12-08T10:58:40.944Z,99269.38
2022-12-08T11:01:20.564Z,99237.91
2022-12-08T11:03:55.220Z,99264.81
2022-12-08T11:06:31.359Z,99262.97
2022-12-08T11:09:02.103Z,99265.59
2022-12-08T11:11:45.775Z,99261.69
2022-12-08T11:14:24.617Z,99248.00
2022-12-08T11:16:55.083Z,99259.91
2022-12-08T11:19:29.991Z,99245.41
2022-12-08T11:21:57.981Z,99246.63
2022-12-08T11:24:31.181Z,99251.75
2022-12-08T11:27:04.164Z,99261.25
2022-12-08T11:29:34.315Z,99255.66
2022-12-08T11:32:12.104Z,99270.16
2022-12-08T11:34:44.543Z,99272.94
2022-12-08T11:37:29.920Z,99282.88
2022-12-08T11:40:08.003Z,99258.03
2022-12-08T11:42:46.956Z,99274.38
2022-12-08T11:45:21.309Z,99273.16
2022-12-08T11:47:59.323Z,99261.47
2022-12-08T11:50:32.090Z,99263.56
2022-12-08T11:53:02.128Z,99280.66
2022-12-08T11:55:39.536Z,99274.06
2022-12-08T11:58:22.264Z,99262.22
2022-12-08T12:00:50.718Z,99271.00
2022-12-08T12:03:41.221Z,99281.38
2022-12-08T12:09:31.280Z,99292.03
2022-12-08T12:12:14.165Z,99306.13
2022-12-08T12:14:47.897Z,99296.28
2022-12-08T12:17:56.902Z,99296.91
2022-12-08T12:20:35.653Z,99298.28
2022-12-08T12:23:17.813Z,99293.69
2022-12-08T12:26:00.041Z,99296.72
2022-12-08T12:28:42.286Z,99283.75
2022-12-08T12:31:15.689Z,99286.06
2022-12-08T12:33:47.755Z,99312.19
2022-12-08T12:36:16.826Z,99294.53
2022-12-08T12:39:03.895Z,99301.84
2022-12-08T12:41:59.633Z,99298.41
2022-12-08T12:44:31.054Z,99306.34
2022-12-08T12:47:11.874Z,99304.84
2022-12-08T12:49:50.211Z,99282.84
2022-12-08T12:52:21.213Z,99312.56
2022-12-08T12:54:53.185Z,99307.75
2022-12-08T12:57:20.698Z,99316.16
2022-12-08T12:59:55.822Z,99302.94
2022-12-08T13:02:29.486Z,99312.13
2022-12-08T13:05:16.294Z,99311.81
2022-12-08T13:07:58.150Z,99316.03
2022-12-08T13:10:40.649Z,99315.03
2022-12-08T13:13:19.201Z,99319.63
2022-12-08T13:15:46.763Z,99318.56
2022-12-08T13:18:27.008Z,99319.59
2022-12-08T13:21:09.884Z,99316.75
2022-12-08T13:23:37.355Z,99327.56
2022-12-08T13:26:28.008Z,99323.28
2022-12-08T13:29:01.906Z,99325.59
2022-12-08T13:31:45.091Z,99322.34
2022-12-08T13:34:42.038Z,99319.41
2022-12-08T13:37:12.603Z,99320.91
2022-12-08T13:39:40.249Z,99319.22
2022-12-08T13:42:30.907Z,99325.19
2022-12-08T13:49:41.940Z,99313.94
2022-12-08T13:57:30.118Z,99309.66
2022-12-08T14:00:03.015Z,99310.81
2022-12-08T14:02:48.199Z,99311.03
2022-12-08T14:05:35.269Z,99295.59
2022-12-08T14:11:35.425Z,99316.41
2022-12-08T14:14:06.354Z,99307.94
2022-12-08T14:16:39.573Z,99312.75
2022-12-08T14:19:20.529Z,99314.91
2022-12-08T14:21:56.432Z,99318.00
2022-12-08T14:24:26.758Z,99259.81
2022-12-08T14:26:58.390Z,99268.16
2022-12-08T14:29:39.921Z,99306.66
2022-12-08T14:33:10.077Z,99269.88
2022-12-08T14:35:41.248Z,99312.78
2022-12-08T14:38:17.558Z,99320.81
2022-12-08T14:41:00.046Z,99318.41
2022-12-08T14:43:30.595Z,99313.34
2022-12-08T14:46:02.764Z,99309.69
2022-12-08T14:48:42.939Z,99320.25
2022-12-08T14:51:32.819Z,99306.56
2022-12-08T14:54:08.818Z,99299.25
2022-12-08T14:56:56.891Z,99298.09
2022-12-08T14:59:37.222Z,99319.44
2022-12-08T15:02:27.309Z,99323.31
2022-12-08T15:05:16.165Z,99323.66
2022-12-08T15:07:54.494Z,99330.75
2022-12-08T15:10:26.997Z,99323.88
2022-12-08T15:13:20.462Z,99306.91
2022-12-08T15:15:58.174Z,99322.59
2022-12-08T15:18:38.949Z,99313.34
2022-12-08T15:21:15.717Z,99312.56
2022-12-08T15:23:46.427Z,99315.28
2022-12-08T15:26:29.018Z,99311.72
2022-12-08T15:28:56.831Z,99308.59
2022-12-08T15:31:24.447Z,99316.16
2022-12-08T15:33:51.969Z,99315.81
2022-12-08T15:36:19.433Z,99314.31
2022-12-08T15:38:46.912Z,99332.34
2022-12-08T15:41:15.428Z,99314.78
2022-12-08T15:43:43.367Z,99308.44
2022-12-08T15:46:12.479Z,99312.25
2022-12-08T15:48:40.176Z,99310.72
2022-12-08T15:51:07.668Z,99313.44
2022-12-08T15:53:35.169Z,99311.28
2022-12-08T15:58:56.984Z,99311.94
2022-12-08T16:01:26.095Z,99305.50
2022-12-08T16:09:44.193Z,99305.19
2022-12-08T16:15:53.040Z,99308.28
2022-12-08T16:18:27.467Z,99312.31
2022-12-08T16:21:10.319Z,99312.31
2022-12-08T16:23:44.971Z,99303.09
2022-12-08T16:27:28.586Z,99305.34
2022-12-08T16:29:17.927Z,99293.75
2022-12-08T16:31:45.521Z,99305.25
2022-12-08T16:34:15.118Z,99299.75
2022-12-08T16:36:42.829Z,99295.63
2022-12-08T16:39:17.403Z,99301.66
2022-12-08T16:42:03.529Z,99293.94
2022-12-08T16:44:31.012Z,99305.19
2022-12-08T16:46:58.668Z,99303.72
2022-12-08T16:49:26.257Z,99300.94
2022-12-08T16:51:54.085Z,99301.72
2022-12-08T16:54:21.573Z,99303.56
2022-12-08T16:56:49.324Z,99294.72
2022-12-08T16:59:16.872Z,99296.81
2022-12-08T17:01:44.559Z,99297.44
2022-12-08T17:04:30.897Z,99301.19
2022-12-08T17:07:00.160Z,99296.44
2022-12-08T17:09:28.850Z,99282.16
2022-12-08T17:12:01.872Z,99275.41
2022-12-08T17:14:35.803Z,99282.03
2022-12-08T17:17:03.559Z,99296.13
2022-12-08T17:19:31.323Z,99293.44
2022-12-08T17:21:59.250Z,99299.56
2022-12-08T17:24:29.370Z,99292.72
2022-12-08T17:27:04.519Z,99296.44
2022-12-08T17:29:33.471Z,99287.19
2022-12-08T17:32:01.619Z,99285.06
2022-12-08T17:34:29.367Z,99285.81
2022-12-08T17:36:56.914Z,99285.16
2022-12-08T17:39:25.579Z,99273.53
2022-12-08T17:41:52.994Z,99277.38
2022-12-08T17:44:21.175Z,99284.41
2022-12-08T17:46:53.465Z,99277.44
2022-12-08T17:49:26.826Z,99285.72
2022-12-08T17:51:56.989Z,99291.13
2022-12-08T17:54:25.217Z,99292.00
2022-12-08T17:56:53.255Z,99292.16
2022-12-08T17:59:21.106Z,99275.94
2022-12-08T18:01:48.783Z,99280.56
2022-12-08T18:04:16.302Z,99285.66
2022-12-08T18:06:43.868Z,99276.09
2022-12-08T18:09:11.630Z,99270.78
2022-12-08T18:11:39.465Z,99278.94
2022-12-08T18:14:10.602Z,99264.31
2022-12-08T18:16:40.950Z,99285.75
2022-12-08T18:19:08.960Z,99280.69
2022-12-08T18:21:37.485Z,99275.63
2022-12-08T18:24:05.558Z,99278.56
2022-12-08T18:26:33.577Z,99280.91
2022-12-08T18:29:01.781Z,99274.56
2022-12-08T18:31:29.311Z,99276.28
2022-12-08T18:33:56.900Z,99276.97
2022-12-08T18:36:26.053Z,99280.09
2022-12-08T18:38:54.460Z,99290.13
2022-12-08T18:41:25.971Z,99288.16
2022-12-08T18:43:54.774Z,99279.88
2022-12-08T18:46:22.886Z,99279.66
2022-12-08T18:48:51.906Z,99284.41
2022-12-08T18:51:22.393Z,99288.13
2022-12-08T18:53:50.378Z,99291.84
2022-12-08T18:56:29.954Z,99288.69
2022-12-08T18:59:03.295Z,99282.72
2022-12-08T19:01:36.331Z,99292.94
2022-12-08T19:06:54.665Z,99282.44
2022-12-08T19:09:23.053Z,99282.94
2022-12-08T19:11:50.742Z,99285.56
2022-12-08T19:14:22.592Z,99286.16
2022-12-08T19:16:53.401Z,99276.22
2022-12-08T19:19:21.767Z,99276.66
2022-12-08T19:21:49.631Z,99276.06
2022-12-08T19:24:17.166Z,99264.97
2022-12-08T19:26:44.749Z,99273.94
2022-12-08T19:29:12.543Z,99266.06
2022-12-08T19:31:40.518Z,99264.81
2022-12-08T19:34:09.832Z,99268.03
2022-12-08T19:36:42.574Z,99272.06
2022-12-08T19:39:43.052Z,99265.03
2022-12-08T19:42:34.382Z,99264.91
2022-12-08T19:45:06.089Z,99268.34
2022-12-08T19:47:33.855Z,99265.06
2022-12-08T19:50:20.653Z,99272.00
2022-12-08T19:52:48.258Z,99280.47
2022-12-08T19:55:16.431Z,99275.09
2022-12-08T19:57:43.911Z,99278.84
2022-12-08T20:00:13.055Z,99271.03
2022-12-08T20:02:40.736Z,99266.72
2022-12-08T20:05:09.618Z,99270.38
2022-12-08T20:07:37.639Z,99272.13
2022-12-08T20:10:10.070Z,99287.41
2022-12-08T20:12:37.623Z,99274.03
2022-12-08T20:15:13.069Z,99275.88
2022-12-08T20:17:41.589Z,99280.25
2022-12-08T20:20:10.629Z,99276.28
2022-12-08T20:22:38.412Z,99279.28
2022-12-08T20:25:06.374Z,99275.78
2022-12-08T20:27:34.003Z,99264.31
2022-12-08T20:30:01.549Z,99274.81
2022-12-08T20:32:31.622Z,99279.13
2022-12-08T20:34:59.251Z,99282.66
2022-12-08T20:37:26.728Z,99287.94
2022-12-08T20:39:54.559Z,99270.28
2022-12-08T20:42:24.373Z,99277.34
2022-12-08T20:44:52.134Z,99283.69
2022-12-08T20:47:19.704Z,99287.34
2022-12-08T20:49:48.032Z,99271.13
2022-12-08T20:52:15.547Z,99280.97
2022-12-08T20:54:43.104Z,99276.19
2022-12-08T20:57:10.779Z,99277.16
2022-12-08T20:59:38.371Z,99274.84
2022-12-08T21:02:05.995Z,99288.47
2022-12-08T21:04:34.053Z,99276.16
2022-12-08T21:07:01.896Z,99281.56
2022-12-08T21:09:29.781Z,99281.16
2022-12-08T21:11:57.529Z,99277.38
2022-12-08T21:14:24.990Z,99284.09
2022-12-08T21:16:54.818Z,99281.22
2022-12-08T21:19:23.766Z,99300.53
2022-12-08T21:21:51.623Z,99282.69
2022-12-08T21:24:19.720Z,99273.19
2022-12-08T21:26:47.429Z,99283.78
2022-12-08T21:29:15.217Z,99302.53
2022-12-08T21:31:42.767Z,99290.25
2022-12-08T21:34:11.833Z,99301.13
2022-12-08T21:36:39.463Z,99301.94
2022-12-08T21:39:12.092Z,99299.47
2022-12-08T21:41:58.415Z,99300.72
2022-12-08T21:44:26.485Z,99269.88
2022-12-08T21:46:54.237Z,99295.81
2022-12-08T21:49:22.024Z,99305.06
2022-12-08T21:51:49.750Z,99306.84
2022-12-08T21:54:19.268Z,99304.09
2022-12-08T21:56:48.653Z,99300.72
2022-12-08T21:59:17.712Z,99298.94
2022-12-08T22:01:45.588Z,99301.19
2022-12-08T22:04:17.538Z,99293.09
2022-12-08T22:06:45.323Z,99302.75
2022-12-08T22:09:13.803Z,99298.44
2022-12-08T22:11:43.277Z,99309.00
2022-12-08T22:14:14.856Z,99308.19
2022-12-08T22:16:44.465Z,99303.75
2022-12-08T22:19:12.789Z,99296.50
2022-12-08T22:21:40.461Z,99301.03
2022-12-08T22:24:09.395Z,99299.16
2022-12-08T22:26:37.113Z,99306.16
2022-12-08T22:29:04.615Z,99302.31
2022-12-08T22:31:32.227Z,99316.63
2022-12-08T22:34:00.556Z,99308.13
2022-12-08T22:36:28.498Z,99317.91
2022-12-08T22:38:56.474Z,99309.66
2022-12-08T22:41:24.464Z,99324.97
2022-12-08T22:43:52.311Z,99303.16
2022-12-08T22:46:25.660Z,99307.59
2022-12-08T22:48:54.686Z,99311.06
2022-12-08T22:51:22.469Z,99310.59
2022-12-08T22:53:50.899Z,99312.13
2022-12-08T22:56:19.692Z,99310.88
2022-12-08T22:58:47.948Z,99320.06
2022-12-08T23:01:27.326Z,99303.91
2022-12-08T23:03:55.164Z,99311.72
2022-12-08T23:06:23.527Z,99316.25
2022-12-08T23:08:51.552Z,99325.03
2022-12-08T23:11:20.617Z,99322.97
2022-12-08T23:13:49.068Z,99317.31
2022-12-08T23:16:16.737Z,99307.19
2022-12-08T23:18:46.351Z,99317.03
2022-12-08T23:21:17.232Z,99303.16
2022-12-08T23:23:45.119Z,99309.94
2022-12-08T23:26:25.745Z,99309.09
2022-12-08T23:28:54.153Z,99315.38
2022-12-08T23:31:22.318Z,99287.69
2022-12-08T23:33:50.018Z,99310.16
2022-12-08T23:36:19.388Z,99309.44
2022-12-08T23:38:47.603Z,99316.84
2022-12-08T23:41:17.283Z,99321.75
2022-12-08T23:43:49.928Z,99304.97
2022-12-08T23:46:19.805Z,99321.06
2022-12-08T23:48:47.481Z,99330.06
2022-12-08T23:51:15.644Z,99323.84
2022-12-08T23:53:44.473Z,99327.47
2022-12-08T23:56:15.045Z,99338.38
2022-12-08T23:58:43.657Z,99321.00
